createdAt,value
2022-08-18T00:00:15.319Z,82.66
2022-08-18T00:05:22.025Z,82.59
2022-08-18T00:10:23.665Z,83.36
2022-08-18T00:15:25.832Z,83.90
2022-08-18T00:20:27.453Z,84.57
2022-08-18T00:25:29.024Z,84.85
2022-08-18T00:30:31.064Z,84.59
2022-08-18T00:35:38.354Z,85.46
2022-08-18T00:40:43.206Z,85.34
2022-08-18T00:45:44.950Z,85.92
2022-08-18T00:50:59.034Z,86.89
2022-08-18T00:56:04.886Z,86.63
2022-08-18T01:01:09.432Z,86.95
2022-08-18T01:06:26.832Z,87.60
2022-08-18T01:11:28.637Z,87.57
2022-08-18T01:16:52.354Z,87.70
2022-08-18T01:22:17.637Z,88.47
2022-08-18T01:27:19.391Z,88.83
2022-08-18T01:32:23.367Z,89.54
2022-08-18T01:37:25.579Z,89.90
2022-08-18T01:42:27.130Z,90.25
2022-08-18T01:47:28.807Z,90.92
2022-08-18T01:52:35.443Z,91.59
2022-08-18T01:57:44.955Z,93.33
2022-08-18T02:02:58.204Z,93.62
2022-08-18T02:08:05.458Z,94.22
2022-08-18T02:13:09.076Z,95.33
2022-08-18T02:18:32.449Z,96.82
2022-08-18T02:23:39.227Z,96.82
2022-08-18T02:28:41.490Z,98.17
2022-08-18T02:33:51.960Z,98.76
2022-08-18T02:38:59.631Z,98.86
2022-08-18T02:44:01.881Z,99.06
2022-08-18T02:49:05.629Z,99.55
2022-08-18T02:54:11.494Z,99.88
2022-08-18T02:59:16.344Z,100.00
2022-08-18T03:04:26.689Z,100.00
2022-08-18T03:09:31.830Z,100.00
2022-08-18T03:14:34.134Z,100.00
2022-08-18T03:19:36.245Z,100.00
2022-08-18T03:24:37.869Z,100.00
2022-08-18T03:29:39.486Z,100.00
2022-08-18T03:34:42.768Z,100.00
2022-08-18T03:39:44.386Z,100.00
2022-08-18T03:44:46.703Z,100.00
2022-08-18T03:49:48.906Z,100.00
2022-08-18T03:54:50.542Z,100.00
2022-08-18T03:59:52.075Z,100.00
2022-08-18T04:04:53.674Z,100.00
2022-08-18T04:09:55.223Z,100.00
2022-08-18T04:14:56.807Z,100.00
2022-08-18T04:19:58.487Z,100.00
2022-08-18T04:25:01.170Z,100.00
2022-08-18T04:30:03.042Z,100.00
2022-08-18T04:35:05.805Z,100.00
2022-08-18T04:40:08.288Z,100.00
2022-08-18T04:45:10.320Z,100.00
2022-08-18T04:50:12.324Z,100.00
2022-08-18T04:55:13.944Z,100.00
2022-08-18T05:00:15.643Z,100.00
2022-08-18T05:05:19.324Z,100.00
2022-08-18T05:10:20.868Z,100.00
2022-08-18T05:15:22.693Z,100.00
2022-08-18T05:20:25.378Z,100.00
2022-08-18T05:25:29.338Z,100.00
2022-08-18T05:30:30.989Z,100.00
2022-08-18T05:35:47.230Z,100.00
2022-08-18T05:41:17.519Z,100.00
2022-08-18T05:46:32.383Z,99.93
2022-08-18T05:51:40.705Z,99.31
2022-08-18T05:56:47.182Z,98.97
2022-08-18T06:01:55.690Z,98.34
2022-08-18T06:07:02.088Z,97.66
2022-08-18T06:12:22.599Z,97.19
2022-08-18T06:18:00.811Z,96.17
2022-08-18T06:23:14.877Z,95.29
2022-08-18T06:28:17.219Z,94.88
2022-08-18T06:33:47.921Z,94.03
2022-08-18T06:39:04.748Z,93.05
2022-08-18T06:44:09.006Z,92.39
2022-08-18T06:49:17.401Z,91.65
2022-08-18T06:54:18.899Z,91.39
2022-08-18T06:59:30.798Z,90.75
2022-08-18T07:04:35.541Z,90.62
2022-08-18T07:09:37.095Z,89.88
2022-08-18T07:14:51.903Z,89.47
2022-08-18T07:20:18.639Z,89.48
2022-08-18T07:25:26.090Z,88.93
2022-08-18T07:30:37.917Z,89.56
2022-08-18T07:35:56.994Z,89.43
2022-08-18T07:41:05.423Z,89.23
2022-08-18T07:46:23.673Z,89.25
2022-08-18T07:51:37.317Z,89.38
2022-08-18T07:57:01.059Z,88.92
2022-08-18T08:02:16.134Z,89.23
2022-08-18T08:07:25.399Z,89.41
2022-08-18T08:13:08.459Z,89.58
2022-08-18T08:18:37.087Z,89.77
2022-08-18T08:23:43.244Z,91.19
2022-08-18T08:29:12.968Z,92.96
2022-08-18T08:34:26.165Z,94.07
2022-08-18T08:39:39.823Z,93.01
2022-08-18T08:44:59.121Z,91.60
2022-08-18T08:50:07.143Z,89.90
2022-08-18T08:55:21.424Z,88.83
2022-08-18T09:00:23.262Z,89.63
2022-08-18T09:05:58.204Z,89.86
2022-08-18T09:11:05.534Z,89.19
2022-08-18T09:16:22.707Z,87.74
2022-08-18T09:21:45.990Z,86.57
2022-08-18T09:27:04.624Z,84.37
2022-08-18T09:32:18.268Z,82.04
2022-08-18T09:37:26.436Z,83.01
2022-08-18T09:42:57.599Z,82.80
2022-08-18T09:48:25.492Z,83.43
2022-08-18T09:53:52.940Z,83.10
2022-08-18T09:59:10.854Z,83.09
2022-08-18T10:04:15.748Z,81.56
2022-08-18T10:09:49.381Z,82.91
2022-08-18T10:15:03.765Z,81.27
2022-08-18T10:20:05.575Z,79.96
2022-08-18T10:25:22.102Z,78.57
2022-08-18T10:30:34.177Z,76.24
2022-08-18T10:35:40.867Z,75.14
2022-08-18T10:40:43.769Z,74.40
2022-08-18T10:46:24.224Z,73.34
2022-08-18T10:52:00.445Z,71.26
2022-08-18T10:57:49.208Z,70.31
2022-08-18T11:03:51.136Z,70.72
2022-08-18T11:09:01.418Z,71.33
2022-08-18T11:14:16.137Z,71.08
2022-08-18T11:19:23.516Z,70.26
2022-08-18T11:24:28.361Z,69.58
2022-08-18T11:29:34.201Z,69.95
2022-08-18T11:34:52.859Z,69.89
2022-08-18T11:40:00.710Z,69.03
2022-08-18T11:45:19.764Z,69.05
2022-08-18T11:50:30.652Z,67.96
2022-08-18T11:55:34.471Z,68.25
2022-08-18T12:00:54.993Z,68.64
2022-08-18T12:11:41.261Z,68.56
2022-08-18T12:16:46.563Z,67.82
2022-08-18T12:21:59.836Z,68.10
2022-08-18T12:27:01.441Z,68.19
2022-08-18T12:32:18.216Z,68.16
2022-08-18T12:38:03.339Z,67.75
2022-08-18T12:48:29.995Z,67.55
2022-08-18T12:53:58.488Z,67.06
2022-08-18T12:58:53.601Z,66.39
2022-08-18T13:04:10.716Z,64.31
2022-08-18T13:09:16.666Z,64.40
2022-08-18T13:14:37.500Z,64.49
2022-08-18T13:19:44.921Z,62.60
2022-08-18T13:24:47.548Z,60.75
2022-08-18T13:29:49.134Z,62.62
2022-08-18T13:34:52.818Z,60.37
2022-08-18T13:39:59.289Z,62.37
2022-08-18T13:45:25.386Z,62.80
2022-08-18T13:50:29.631Z,62.82
2022-08-18T13:55:31.655Z,61.79
2022-08-18T14:00:34.205Z,61.44
2022-08-18T14:05:51.314Z,61.33
2022-08-18T14:10:57.867Z,61.41
2022-08-18T14:16:01.591Z,60.88
2022-08-18T14:21:23.548Z,59.71
2022-08-18T14:26:44.114Z,60.61
2022-08-18T14:31:45.919Z,60.50
2022-08-18T14:36:48.687Z,60.27
2022-08-18T14:42:05.211Z,60.79
2022-08-18T14:47:24.170Z,61.29
2022-08-18T14:52:27.808Z,61.07
2022-08-18T14:57:29.823Z,60.76
2022-08-18T15:02:31.367Z,60.81
2022-08-18T15:07:37.805Z,61.32
2022-08-18T15:12:43.831Z,60.51
2022-08-18T15:17:50.043Z,60.43
2022-08-18T15:23:12.967Z,60.54
2022-08-18T15:28:17.587Z,59.47
2022-08-18T15:33:25.290Z,59.89
2022-08-18T15:38:32.798Z,60.12
2022-08-18T15:43:34.423Z,60.89
2022-08-18T15:48:47.733Z,59.93
2022-08-18T15:53:49.334Z,60.59
2022-08-18T15:58:51.907Z,60.63
2022-08-18T16:03:55.260Z,61.33
2022-08-18T16:08:56.976Z,61.65
2022-08-18T16:13:59.134Z,61.20
2022-08-18T16:19:03.955Z,61.34
2022-08-18T16:24:07.069Z,61.69
2022-08-18T16:29:08.611Z,61.80
2022-08-18T16:34:10.161Z,61.37
2022-08-18T16:39:11.707Z,61.19
2022-08-18T16:44:15.967Z,61.19
2022-08-18T16:49:19.943Z,61.43
2022-08-18T16:54:22.229Z,61.35
2022-08-18T16:59:42.724Z,60.97
2022-08-18T17:04:44.280Z,60.92
2022-08-18T17:15:49.862Z,60.97
2022-08-18T17:20:52.316Z,61.67
2022-08-18T17:25:57.516Z,61.11
2022-08-18T17:30:59.281Z,61.66
2022-08-18T17:36:08.524Z,61.45
2022-08-18T17:41:12.616Z,61.73
2022-08-18T17:46:14.123Z,61.45
2022-08-18T17:51:34.665Z,61.85
2022-08-18T17:56:42.518Z,62.35
2022-08-18T18:01:44.082Z,62.81
2022-08-18T18:06:48.224Z,62.68
2022-08-18T18:11:51.191Z,63.37
2022-08-18T18:17:16.902Z,63.11
2022-08-18T18:22:25.654Z,63.86
2022-08-18T18:27:40.680Z,64.72
2022-08-18T18:32:59.101Z,64.95
2022-08-18T18:38:22.570Z,66.16
2022-08-18T18:43:29.068Z,67.19
2022-08-18T18:48:51.817Z,67.28
2022-08-18T18:54:24.490Z,68.02
2022-08-18T18:59:45.238Z,68.75
2022-08-18T19:04:55.118Z,68.87
2022-08-18T19:10:08.028Z,69.03
2022-08-18T19:15:15.949Z,69.63
2022-08-18T19:20:43.631Z,70.84
2022-08-18T19:26:09.750Z,71.40
2022-08-18T19:31:23.172Z,72.38
2022-08-18T19:36:41.654Z,72.78
2022-08-18T19:41:58.061Z,73.07
2022-08-18T19:47:15.720Z,74.05
2022-08-18T19:53:00.969Z,74.57
2022-08-18T19:58:32.015Z,75.45
2022-08-18T20:03:52.451Z,75.86
2022-08-18T20:09:13.571Z,76.13
2022-08-18T20:14:20.852Z,76.65
2022-08-18T20:20:01.112Z,77.73
2022-08-18T20:25:18.024Z,78.08
2022-08-18T20:30:19.605Z,78.25
2022-08-18T20:35:33.908Z,78.77
2022-08-18T20:40:41.443Z,78.87
2022-08-18T20:45:46.105Z,79.36
2022-08-18T20:50:59.656Z,79.60
2022-08-18T20:56:32.539Z,79.77
2022-08-18T21:01:35.759Z,80.25
2022-08-18T21:06:42.057Z,80.48
2022-08-18T21:11:48.140Z,80.73
2022-08-18T21:16:49.720Z,80.78
2022-08-18T21:21:55.014Z,81.83
2022-08-18T21:26:59.362Z,82.17
2022-08-18T21:32:12.010Z,82.77
2022-08-18T21:37:18.002Z,82.71
2022-08-18T21:42:40.471Z,83.11
2022-08-18T21:47:49.590Z,83.88
2022-08-18T21:52:57.599Z,83.90
2022-08-18T21:58:04.616Z,84.18
2022-08-18T22:03:23.088Z,84.85
2022-08-18T22:08:26.820Z,85.55
2022-08-18T22:13:48.119Z,86.20
2022-08-18T22:18:49.861Z,86.46
2022-08-18T22:24:10.690Z,86.81
2022-08-18T22:29:16.734Z,86.94
2022-08-18T22:34:27.811Z,87.30
2022-08-18T22:39:37.634Z,87.33
2022-08-18T22:44:41.675Z,87.48
2022-08-18T22:49:45.225Z,87.79
2022-08-18T22:54:46.858Z,88.17
2022-08-18T22:59:52.432Z,88.42
2022-08-18T23:04:54.209Z,88.64
2022-08-18T23:09:55.835Z,88.71
2022-08-18T23:14:57.398Z,89.13
2022-08-18T23:19:58.943Z,89.11
2022-08-18T23:25:08.832Z,89.59
2022-08-18T23:30:11.712Z,89.52
2022-08-18T23:35:15.248Z,89.72
2022-08-18T23:40:17.626Z,89.68
2022-08-18T23:45:19.544Z,90.19
2022-08-18T23:50:24.378Z,90.31
2022-08-18T23:55:29.543Z,90.45
